Portada
METAR-TAF:

METAR-TAF

Aeroports :

Sandakan, Malàisia

latitud: 05-54N, longitud: 118-04E, altitud: 12 m

Observació

L'informe es va fer fa 1 hora i 5 minuts, a les 22:00 UTC
Vent 2 kt amb direcció variable
Temperatura 26°C
Humitat 94%
Pressió 1010 hPa
Visibilitat: 0700 m
Escasses núvols a una alçada de 1600 ft
Cel ennuvolat a una alçada de 28000 ft
calitja

METAR: WBKS 152200Z VRB02KT 0700 HZ FEW016 BKN280 26/25 Q1010

Hora: 07:05 (23:05 UTC)

Pronòstic

L'informe es va fer fa 6 hores i 5 minuts, a les 17:00 UTC
Pronòstic vàlid del 15 a les 18 UTC al 16 a les 18 UTC
Vent 5 kt del Sud
Visibilitat: 5000 m
Escasses núvols a una alçada de 1600 ft
calitja

TAF: WBKS 151700Z 1518/1618 19005KT 5000 HZ FEW016

Observacions i pronòstics meteorològics de més de 4000 aeroports (METAR i TAF).

Les estacions disponibles són els punts grocs i vermells al mapa.

Posi el ratolí al punt desitjat per veure el nom de l'estació.

Feu clic per veure les observacions i els pronòstics meteorològics.

Per canviar el mapa: feu clic els botons verds amb una creu de color negre per apropar; al botó verd amb un guió per allunyar la imatge; o en les fletxes verdes per a mapes adjacents.


METAR-TAF: